sensor_id;sensor_type;location;lat;lon;timestamp;temperature;humidity
6146;DHT22;3104;50.348;7.620;2022-12-11T00:00:14;-0.60;99.90
6146;DHT22;3104;50.348;7.620;2022-12-11T00:02:40;-0.60;99.90
6146;DHT22;3104;50.348;7.620;2022-12-11T00:05:05;-0.60;99.90
6146;DHT22;3104;50.348;7.620;2022-12-11T00:07:31;-0.40;99.90
6146;DHT22;3104;50.348;7.620;2022-12-11T00:09:57;-0.50;99.90
6146;DHT22;3104;50.348;7.620;2022-12-11T00:12:23;-0.50;99.90
6146;DHT22;3104;50.348;7.620;2022-12-11T00:14:48;-0.40;99.90
6146;DHT22;3104;50.348;7.620;2022-12-11T00:17:14;-0.40;99.90
6146;DHT22;3104;50.348;7.620;2022-12-11T00:19:39;-0.50;99.90
6146;DHT22;3104;50.348;7.620;2022-12-11T00:22:05;-0.50;99.90
6146;DHT22;3104;50.348;7.620;2022-12-11T00:24:31;-0.50;99.90
6146;DHT22;3104;50.348;7.620;2022-12-11T00:26:56;-0.60;99.90
6146;DHT22;3104;50.348;7.620;2022-12-11T00:29:22;-0.50;99.90
6146;DHT22;3104;50.348;7.620;2022-12-11T00:31:47;-0.60;99.90
6146;DHT22;3104;50.348;7.620;2022-12-11T00:34:13;-0.70;99.90
6146;DHT22;3104;50.348;7.620;2022-12-11T00:36:38;-0.40;99.90
6146;DHT22;3104;50.348;7.620;2022-12-11T00:39:04;-0.50;99.90
6146;DHT22;3104;50.348;7.620;2022-12-11T00:41:30;-0.40;99.90
6146;DHT22;3104;50.348;7.620;2022-12-11T00:43:56;0.10;99.90
6146;DHT22;3104;50.348;7.620;2022-12-11T00:46:21;0.10;99.90
6146;DHT22;3104;50.348;7.620;2022-12-11T00:48:47;0.10;99.90
6146;DHT22;3104;50.348;7.620;2022-12-11T00:51:15;0.10;99.90
6146;DHT22;3104;50.348;7.620;2022-12-11T00:53:41;0.40;99.90
6146;DHT22;3104;50.348;7.620;2022-12-11T00:56:15;0.50;99.90
6146;DHT22;3104;50.348;7.620;2022-12-11T00:58:41;0.90;99.90
6146;DHT22;3104;50.348;7.620;2022-12-11T01:01:08;1.20;99.90
6146;DHT22;3104;50.348;7.620;2022-12-11T01:03:35;1.10;99.90
6146;DHT22;3104;50.348;7.620;2022-12-11T01:06:00;0.60;99.90
6146;DHT22;3104;50.348;7.620;2022-12-11T01:08:26;0.30;99.90
6146;DHT22;3104;50.348;7.620;2022-12-11T01:11:00;0.10;99.90
6146;DHT22;3104;50.348;7.620;2022-12-11T01:13:26;0.00;99.90
6146;DHT22;3104;50.348;7.620;2022-12-11T01:15:52;-0.20;99.90
6146;DHT22;3104;50.348;7.620;2022-12-11T01:18:17;-0.30;99.90
6146;DHT22;3104;50.348;7.620;2022-12-11T01:20:43;-0.30;99.90
6146;DHT22;3104;50.348;7.620;2022-12-11T01:23:11;-0.40;99.90
6146;DHT22;3104;50.348;7.620;2022-12-11T01:25:37;-0.40;99.90
6146;DHT22;3104;50.348;7.620;2022-12-11T01:28:03;-0.40;99.90
6146;DHT22;3104;50.348;7.620;2022-12-11T01:30:29;-0.30;99.90
6146;DHT22;3104;50.348;7.620;2022-12-11T01:32:55;-0.30;99.90
6146;DHT22;3104;50.348;7.620;2022-12-11T01:35:20;-0.40;99.90
6146;DHT22;3104;50.348;7.620;2022-12-11T01:37:46;-0.40;99.90
6146;DHT22;3104;50.348;7.620;2022-12-11T01:40:15;-0.40;99.90
6146;DHT22;3104;50.348;7.620;2022-12-11T01:42:41;-0.30;99.90
6146;DHT22;3104;50.348;7.620;2022-12-11T01:45:33;-0.30;99.90
6146;DHT22;3104;50.348;7.620;2022-12-11T01:48:03;-0.30;99.90
6146;DHT22;3104;50.348;7.620;2022-12-11T01:50:31;-0.20;99.90
6146;DHT22;3104;50.348;7.620;2022-12-11T01:52:58;-0.10;99.90
6146;DHT22;3104;50.348;7.620;2022-12-11T01:55:24;0.00;99.90
6146;DHT22;3104;50.348;7.620;2022-12-11T01:57:50;0.00;99.90
6146;DHT22;3104;50.348;7.620;2022-12-11T02:00:16;-0.20;99.90
6146;DHT22;3104;50.348;7.620;2022-12-11T02:02:43;-0.10;99.90
6146;DHT22;3104;50.348;7.620;2022-12-11T02:05:08;0.20;99.90
6146;DHT22;3104;50.348;7.620;2022-12-11T02:07:44;0.20;99.90
6146;DHT22;3104;50.348;7.620;2022-12-11T02:10:11;0.10;99.90
6146;DHT22;3104;50.348;7.620;2022-12-11T02:24:57;0.00;99.90
6146;DHT22;3104;50.348;7.620;2022-12-11T02:27:13;0.10;99.90
6146;DHT22;3104;50.348;7.620;2022-12-11T02:30:00;0.00;99.90
6146;DHT22;3104;50.348;7.620;2022-12-11T02:35:21;0.10;99.90
6146;DHT22;3104;50.348;7.620;2022-12-11T02:37:55;0.10;99.90
6146;DHT22;3104;50.348;7.620;2022-12-11T02:40:25;-0.10;99.90
6146;DHT22;3104;50.348;7.620;2022-12-11T02:42:53;-0.20;99.90
6146;DHT22;3104;50.348;7.620;2022-12-11T02:45:21;-0.20;99.90
6146;DHT22;3104;50.348;7.620;2022-12-11T02:47:48;-0.20;99.90
6146;DHT22;3104;50.348;7.620;2022-12-11T02:50:18;-0.30;99.90
6146;DHT22;3104;50.348;7.620;2022-12-11T02:52:45;-0.20;99.90
6146;DHT22;3104;50.348;7.620;2022-12-11T02:55:14;-0.20;99.90
6146;DHT22;3104;50.348;7.620;2022-12-11T02:57:50;-0.30;99.90
6146;DHT22;3104;50.348;7.620;2022-12-11T03:00:17;-0.30;99.90
6146;DHT22;3104;50.348;7.620;2022-12-11T03:02:44;-0.30;99.90
6146;DHT22;3104;50.348;7.620;2022-12-11T03:05:11;-0.40;99.90
6146;DHT22;3104;50.348;7.620;2022-12-11T03:07:39;-0.30;99.90
6146;DHT22;3104;50.348;7.620;2022-12-11T03:10:07;-0.10;99.90
6146;DHT22;3104;50.348;7.620;2022-12-11T03:12:36;-0.10;99.90
6146;DHT22;3104;50.348;7.620;2022-12-11T03:15:06;0.10;99.90
6146;DHT22;3104;50.348;7.620;2022-12-11T03:20:30;-0.10;99.90
6146;DHT22;3104;50.348;7.620;2022-12-11T03:26:00;0.00;99.90
6146;DHT22;3104;50.348;7.620;2022-12-11T03:28:41;0.10;99.90
6146;DHT22;3104;50.348;7.620;2022-12-11T03:31:16;0.10;99.90
6146;DHT22;3104;50.348;7.620;2022-12-11T03:33:47;-0.10;99.90
6146;DHT22;3104;50.348;7.620;2022-12-11T03:36:21;0.00;99.90
6146;DHT22;3104;50.348;7.620;2022-12-11T03:38:52;0.00;99.90
6146;DHT22;3104;50.348;7.620;2022-12-11T03:41:21;-0.20;99.90
6146;DHT22;3104;50.348;7.620;2022-12-11T03:43:48;-0.10;99.90
6146;DHT22;3104;50.348;7.620;2022-12-11T03:46:17;0.20;99.90
6146;DHT22;3104;50.348;7.620;2022-12-11T03:48:46;0.10;99.90
6146;DHT22;3104;50.348;7.620;2022-12-11T03:51:14;0.00;99.90
6146;DHT22;3104;50.348;7.620;2022-12-11T03:53:41;-0.10;99.90
6146;DHT22;3104;50.348;7.620;2022-12-11T03:56:09;0.10;99.90
6146;DHT22;3104;50.348;7.620;2022-12-11T03:58:36;-0.10;99.90
6146;DHT22;3104;50.348;7.620;2022-12-11T04:01:01;-0.10;99.90
6146;DHT22;3104;50.348;7.620;2022-12-11T04:03:27;-0.10;99.90
6146;DHT22;3104;50.348;7.620;2022-12-11T04:05:54;0.00;99.90
6146;DHT22;3104;50.348;7.620;2022-12-11T04:08:21;0.10;99.90
6146;DHT22;3104;50.348;7.620;2022-12-11T04:10:48;0.20;99.90
6146;DHT22;3104;50.348;7.620;2022-12-11T04:13:34;0.20;99.90
6146;DHT22;3104;50.348;7.620;2022-12-11T04:16:00;0.10;99.90
6146;DHT22;3104;50.348;7.620;2022-12-11T04:18:25;0.00;99.90
6146;DHT22;3104;50.348;7.620;2022-12-11T04:21:10;-0.20;99.90
6146;DHT22;3104;50.348;7.620;2022-12-11T04:23:54;-0.20;99.90
6146;DHT22;3104;50.348;7.620;2022-12-11T04:26:38;-0.10;99.90
6146;DHT22;3104;50.348;7.620;2022-12-11T04:29:03;0.00;99.90
6146;DHT22;3104;50.348;7.620;2022-12-11T04:31:29;-0.10;99.90
6146;DHT22;3104;50.348;7.620;2022-12-11T04:33:54;0.00;99.90
6146;DHT22;3104;50.348;7.620;2022-12-11T04:36:20;-0.10;99.90
6146;DHT22;3104;50.348;7.620;2022-12-11T04:38:45;-0.10;99.90
6146;DHT22;3104;50.348;7.620;2022-12-11T04:41:12;-0.10;99.90
6146;DHT22;3104;50.348;7.620;2022-12-11T04:43:39;-0.20;99.90
6146;DHT22;3104;50.348;7.620;2022-12-11T04:46:14;0.00;99.90
6146;DHT22;3104;50.348;7.620;2022-12-11T04:48:40;0.00;99.90
6146;DHT22;3104;50.348;7.620;2022-12-11T04:51:06;0.00;99.90
6146;DHT22;3104;50.348;7.620;2022-12-11T04:53:32;0.00;99.90
6146;DHT22;3104;50.348;7.620;2022-12-11T04:55:58;0.00;99.90
6146;DHT22;3104;50.348;7.620;2022-12-11T04:58:24;0.00;99.90
6146;DHT22;3104;50.348;7.620;2022-12-11T05:00:50;-0.10;99.90
6146;DHT22;3104;50.348;7.620;2022-12-11T05:03:16;0.20;99.90
6146;DHT22;3104;50.348;7.620;2022-12-11T05:05:50;0.00;99.90
6146;DHT22;3104;50.348;7.620;2022-12-11T05:08:19;-0.10;99.90
6146;DHT22;3104;50.348;7.620;2022-12-11T05:10:55;0.00;99.90
6146;DHT22;3104;50.348;7.620;2022-12-11T05:13:21;0.00;99.90
6146;DHT22;3104;50.348;7.620;2022-12-11T05:15:46;0.00;99.90
6146;DHT22;3104;50.348;7.620;2022-12-11T05:18:12;0.00;99.90
6146;DHT22;3104;50.348;7.620;2022-12-11T05:20:38;0.20;99.90
6146;DHT22;3104;50.348;7.620;2022-12-11T05:23:03;0.20;99.90
6146;DHT22;3104;50.348;7.620;2022-12-11T05:25:29;0.20;99.90
6146;DHT22;3104;50.348;7.620;2022-12-11T05:27:54;0.10;99.90
6146;DHT22;3104;50.348;7.620;2022-12-11T05:30:20;0.10;99.90
6146;DHT22;3104;50.348;7.620;2022-12-11T05:32:46;0.10;99.90
6146;DHT22;3104;50.348;7.620;2022-12-11T05:35:11;0.00;99.90
6146;DHT22;3104;50.348;7.620;2022-12-11T05:37:37;0.00;99.90
6146;DHT22;3104;50.348;7.620;2022-12-11T05:40:03;0.10;99.90
6146;DHT22;3104;50.348;7.620;2022-12-11T05:42:31;0.20;99.90
6146;DHT22;3104;50.348;7.620;2022-12-11T05:44:56;0.20;99.90
6146;DHT22;3104;50.348;7.620;2022-12-11T05:47:22;0.00;99.90
6146;DHT22;3104;50.348;7.620;2022-12-11T05:49:48;0.00;99.90
6146;DHT22;3104;50.348;7.620;2022-12-11T05:52:13;0.20;99.90
6146;DHT22;3104;50.348;7.620;2022-12-11T05:54:41;0.10;99.90
6146;DHT22;3104;50.348;7.620;2022-12-11T05:57:06;0.10;99.90
6146;DHT22;3104;50.348;7.620;2022-12-11T05:59:32;0.00;99.90
6146;DHT22;3104;50.348;7.620;2022-12-11T06:01:57;0.00;99.90
6146;DHT22;3104;50.348;7.620;2022-12-11T06:04:23;0.00;99.90
6146;DHT22;3104;50.348;7.620;2022-12-11T06:06:49;-0.10;99.90
6146;DHT22;3104;50.348;7.620;2022-12-11T06:09:15;0.00;99.90
6146;DHT22;3104;50.348;7.620;2022-12-11T06:11:41;0.00;99.90
6146;DHT22;3104;50.348;7.620;2022-12-11T06:14:08;-0.10;99.90
6146;DHT22;3104;50.348;7.620;2022-12-11T06:16:34;0.10;99.90
6146;DHT22;3104;50.348;7.620;2022-12-11T06:18:59;0.30;99.90
6146;DHT22;3104;50.348;7.620;2022-12-11T06:21:28;0.20;99.90
6146;DHT22;3104;50.348;7.620;2022-12-11T06:23:55;0.40;99.90
6146;DHT22;3104;50.348;7.620;2022-12-11T06:26:22;0.40;99.90
6146;DHT22;3104;50.348;7.620;2022-12-11T06:28:48;0.20;99.90
6146;DHT22;3104;50.348;7.620;2022-12-11T06:31:14;0.40;99.90
6146;DHT22;3104;50.348;7.620;2022-12-11T06:33:39;0.20;99.90
6146;DHT22;3104;50.348;7.620;2022-12-11T06:36:11;0.20;99.90
6146;DHT22;3104;50.348;7.620;2022-12-11T06:38:38;0.10;99.90
6146;DHT22;3104;50.348;7.620;2022-12-11T06:41:05;0.10;99.90
6146;DHT22;3104;50.348;7.620;2022-12-11T06:43:31;0.00;99.90
6146;DHT22;3104;50.348;7.620;2022-12-11T06:46:08;-0.10;99.90
6146;DHT22;3104;50.348;7.620;2022-12-11T06:48:34;0.10;99.90
6146;DHT22;3104;50.348;7.620;2022-12-11T06:51:08;0.10;99.90
6146;DHT22;3104;50.348;7.620;2022-12-11T06:53:34;0.10;99.90
6146;DHT22;3104;50.348;7.620;2022-12-11T06:56:06;0.00;99.90
6146;DHT22;3104;50.348;7.620;2022-12-11T06:58:33;0.10;99.90
6146;DHT22;3104;50.348;7.620;2022-12-11T07:00:59;0.10;99.90
6146;DHT22;3104;50.348;7.620;2022-12-11T07:03:26;0.10;99.90
6146;DHT22;3104;50.348;7.620;2022-12-11T07:05:52;0.20;99.90
6146;DHT22;3104;50.348;7.620;2022-12-11T07:08:17;0.30;99.90
6146;DHT22;3104;50.348;7.620;2022-12-11T07:10:43;0.50;99.90
6146;DHT22;3104;50.348;7.620;2022-12-11T07:13:08;0.40;99.90
6146;DHT22;3104;50.348;7.620;2022-12-11T07:15:35;0.40;99.90
6146;DHT22;3104;50.348;7.620;2022-12-11T07:18:00;0.30;99.90
6146;DHT22;3104;50.348;7.620;2022-12-11T07:20:26;0.30;99.90
6146;DHT22;3104;50.348;7.620;2022-12-11T07:22:52;0.20;99.90
6146;DHT22;3104;50.348;7.620;2022-12-11T07:25:18;0.20;99.90
6146;DHT22;3104;50.348;7.620;2022-12-11T07:27:44;0.50;99.90
6146;DHT22;3104;50.348;7.620;2022-12-11T07:30:10;0.50;99.90
6146;DHT22;3104;50.348;7.620;2022-12-11T07:32:36;0.40;99.90
6146;DHT22;3104;50.348;7.620;2022-12-11T07:35:03;1.40;99.90
6146;DHT22;3104;50.348;7.620;2022-12-11T07:37:28;1.20;99.90
6146;DHT22;3104;50.348;7.620;2022-12-11T07:39:54;0.80;99.90
6146;DHT22;3104;50.348;7.620;2022-12-11T07:42:19;0.60;99.90
6146;DHT22;3104;50.348;7.620;2022-12-11T07:44:45;0.40;99.90
6146;DHT22;3104;50.348;7.620;2022-12-11T07:47:10;0.30;99.90
6146;DHT22;3104;50.348;7.620;2022-12-11T07:49:36;0.30;99.90
6146;DHT22;3104;50.348;7.620;2022-12-11T07:52:02;0.30;99.90
6146;DHT22;3104;50.348;7.620;2022-12-11T07:54:28;0.60;99.90
6146;DHT22;3104;50.348;7.620;2022-12-11T07:56:53;0.40;99.90
6146;DHT22;3104;50.348;7.620;2022-12-11T07:59:19;0.30;99.90
6146;DHT22;3104;50.348;7.620;2022-12-11T08:01:45;0.40;99.90
6146;DHT22;3104;50.348;7.620;2022-12-11T08:04:11;0.60;99.90
6146;DHT22;3104;50.348;7.620;2022-12-11T08:06:40;0.70;99.90
6146;DHT22;3104;50.348;7.620;2022-12-11T08:09:08;0.60;99.90
6146;DHT22;3104;50.348;7.620;2022-12-11T08:11:34;0.60;99.90
6146;DHT22;3104;50.348;7.620;2022-12-11T08:14:00;0.40;99.90
6146;DHT22;3104;50.348;7.620;2022-12-11T08:16:27;0.30;99.90
6146;DHT22;3104;50.348;7.620;2022-12-11T08:18:53;0.50;99.90
6146;DHT22;3104;50.348;7.620;2022-12-11T08:21:24;0.40;99.90
6146;DHT22;3104;50.348;7.620;2022-12-11T08:23:51;0.30;99.90
6146;DHT22;3104;50.348;7.620;2022-12-11T08:26:26;0.40;99.90
6146;DHT22;3104;50.348;7.620;2022-12-11T08:28:52;0.50;99.90
6146;DHT22;3104;50.348;7.620;2022-12-11T08:31:18;0.60;99.90
6146;DHT22;3104;50.348;7.620;2022-12-11T08:33:44;1.10;99.90
6146;DHT22;3104;50.348;7.620;2022-12-11T08:36:12;0.80;99.90
6146;DHT22;3104;50.348;7.620;2022-12-11T08:38:38;0.80;99.90
6146;DHT22;3104;50.348;7.620;2022-12-11T08:41:14;0.90;99.90
6146;DHT22;3104;50.348;7.620;2022-12-11T08:43:41;1.50;99.90
6146;DHT22;3104;50.348;7.620;2022-12-11T08:46:08;2.40;99.90
6146;DHT22;3104;50.348;7.620;2022-12-11T08:48:35;2.60;99.90
6146;DHT22;3104;50.348;7.620;2022-12-11T08:51:03;1.90;99.90
6146;DHT22;3104;50.348;7.620;2022-12-11T08:53:29;1.60;99.90
6146;DHT22;3104;50.348;7.620;2022-12-11T08:56:06;1.20;99.90
6146;DHT22;3104;50.348;7.620;2022-12-11T08:58:33;0.90;99.90
6146;DHT22;3104;50.348;7.620;2022-12-11T09:00:58;0.80;99.90
6146;DHT22;3104;50.348;7.620;2022-12-11T09:03:24;0.90;99.90
6146;DHT22;3104;50.348;7.620;2022-12-11T09:05:50;0.90;99.90
6146;DHT22;3104;50.348;7.620;2022-12-11T09:08:16;1.00;99.90
6146;DHT22;3104;50.348;7.620;2022-12-11T09:10:42;0.90;99.90
6146;DHT22;3104;50.348;7.620;2022-12-11T09:13:07;0.90;99.90
6146;DHT22;3104;50.348;7.620;2022-12-11T09:15:33;0.90;99.90
6146;DHT22;3104;50.348;7.620;2022-12-11T09:17:59;0.90;99.90
6146;DHT22;3104;50.348;7.620;2022-12-11T09:20:24;1.10;99.90
6146;DHT22;3104;50.348;7.620;2022-12-11T09:22:50;1.00;99.90
6146;DHT22;3104;50.348;7.620;2022-12-11T09:25:15;0.90;99.90
6146;DHT22;3104;50.348;7.620;2022-12-11T09:27:41;0.80;99.90
6146;DHT22;3104;50.348;7.620;2022-12-11T09:30:07;0.80;99.90
6146;DHT22;3104;50.348;7.620;2022-12-11T09:32:33;0.90;99.90
6146;DHT22;3104;50.348;7.620;2022-12-11T09:34:58;1.20;99.90
6146;DHT22;3104;50.348;7.620;2022-12-11T09:37:24;1.10;99.90
6146;DHT22;3104;50.348;7.620;2022-12-11T09:39:49;1.20;99.90
6146;DHT22;3104;50.348;7.620;2022-12-11T09:42:23;1.10;99.90
6146;DHT22;3104;50.348;7.620;2022-12-11T09:45:01;1.20;99.90
6146;DHT22;3104;50.348;7.620;2022-12-11T09:47:36;1.30;99.90
6146;DHT22;3104;50.348;7.620;2022-12-11T09:55:23;1.80;99.90
6146;DHT22;3104;50.348;7.620;2022-12-11T10:00:48;2.00;99.90
6146;DHT22;3104;50.348;7.620;2022-12-11T10:11:57;2.30;99.90
6146;DHT22;3104;50.348;7.620;2022-12-11T10:17:17;1.60;99.90
6146;DHT22;3104;50.348;7.620;2022-12-11T10:19:44;2.10;99.90
6146;DHT22;3104;50.348;7.620;2022-12-11T10:22:42;2.40;99.90
6146;DHT22;3104;50.348;7.620;2022-12-11T10:25:20;2.00;99.90
6146;DHT22;3104;50.348;7.620;2022-12-11T10:27:46;1.90;99.90
6146;DHT22;3104;50.348;7.620;2022-12-11T10:30:33;2.20;99.90
6146;DHT22;3104;50.348;7.620;2022-12-11T10:35:39;2.60;99.90
6146;DHT22;3104;50.348;7.620;2022-12-11T10:38:14;2.60;99.90
6146;DHT22;3104;50.348;7.620;2022-12-11T10:40:46;2.30;99.90
6146;DHT22;3104;50.348;7.620;2022-12-11T10:43:11;2.50;99.90
6146;DHT22;3104;50.348;7.620;2022-12-11T10:45:38;2.70;99.90
6146;DHT22;3104;50.348;7.620;2022-12-11T10:48:05;2.40;99.90
6146;DHT22;3104;50.348;7.620;2022-12-11T10:50:33;2.50;99.90
6146;DHT22;3104;50.348;7.620;2022-12-11T10:52:59;2.40;99.90
6146;DHT22;3104;50.348;7.620;2022-12-11T10:55:28;2.10;99.90
6146;DHT22;3104;50.348;7.620;2022-12-11T10:58:04;2.20;99.90
6146;DHT22;3104;50.348;7.620;2022-12-11T11:00:37;2.60;99.90
6146;DHT22;3104;50.348;7.620;2022-12-11T11:03:21;2.40;99.90
6146;DHT22;3104;50.348;7.620;2022-12-11T11:05:47;2.50;99.90
6146;DHT22;3104;50.348;7.620;2022-12-11T11:08:20;2.50;99.90
6146;DHT22;3104;50.348;7.620;2022-12-11T11:13:15;2.70;99.90
6146;DHT22;3104;50.348;7.620;2022-12-11T11:15:40;3.10;99.90
6146;DHT22;3104;50.348;7.620;2022-12-11T11:18:15;2.80;99.90
6146;DHT22;3104;50.348;7.620;2022-12-11T11:20:46;2.80;99.90
6146;DHT22;3104;50.348;7.620;2022-12-11T11:23:14;2.80;99.90
6146;DHT22;3104;50.348;7.620;2022-12-11T11:25:57;2.60;99.90
6146;DHT22;3104;50.348;7.620;2022-12-11T11:28:27;2.40;99.90
6146;DHT22;3104;50.348;7.620;2022-12-11T11:31:11;2.70;99.90
6146;DHT22;3104;50.348;7.620;2022-12-11T11:33:55;2.60;99.90
6146;DHT22;3104;50.348;7.620;2022-12-11T11:36:33;2.60;99.90
6146;DHT22;3104;50.348;7.620;2022-12-11T11:41:57;2.70;99.90
6146;DHT22;3104;50.348;7.620;2022-12-11T11:44:30;2.80;99.90
6146;DHT22;3104;50.348;7.620;2022-12-11T11:47:06;2.50;99.90
6146;DHT22;3104;50.348;7.620;2022-12-11T11:50:03;2.70;99.90
6146;DHT22;3104;50.348;7.620;2022-12-11T11:52:41;2.80;99.90
6146;DHT22;3104;50.348;7.620;2022-12-11T11:58:15;2.70;99.90
6146;DHT22;3104;50.348;7.620;2022-12-11T12:00:43;2.90;99.90
6146;DHT22;3104;50.348;7.620;2022-12-11T12:03:12;2.50;99.90
6146;DHT22;3104;50.348;7.620;2022-12-11T12:08:57;2.60;99.90
6146;DHT22;3104;50.348;7.620;2022-12-11T12:11:56;2.40;99.90
6146;DHT22;3104;50.348;7.620;2022-12-11T12:17:17;2.20;99.90
6146;DHT22;3104;50.348;7.620;2022-12-11T12:19:58;2.10;99.90
6146;DHT22;3104;50.348;7.620;2022-12-11T12:25:40;2.60;99.90
6146;DHT22;3104;50.348;7.620;2022-12-11T12:28:28;2.20;99.90
6146;DHT22;3104;50.348;7.620;2022-12-11T12:31:20;2.20;99.90
6146;DHT22;3104;50.348;7.620;2022-12-11T12:34:01;2.10;99.90
6146;DHT22;3104;50.348;7.620;2022-12-11T12:37:04;2.10;99.90
6146;DHT22;3104;50.348;7.620;2022-12-11T12:40:02;2.00;99.90
6146;DHT22;3104;50.348;7.620;2022-12-11T12:45:25;2.50;99.90
6146;DHT22;3104;50.348;7.620;2022-12-11T12:47:53;2.30;99.90
6146;DHT22;3104;50.348;7.620;2022-12-11T12:50:24;2.20;99.90
6146;DHT22;3104;50.348;7.620;2022-12-11T12:52:51;2.40;99.90
6146;DHT22;3104;50.348;7.620;2022-12-11T12:55:24;2.20;99.90
6146;DHT22;3104;50.348;7.620;2022-12-11T12:57:55;2.20;99.90
6146;DHT22;3104;50.348;7.620;2022-12-11T13:02:53;2.10;99.90
6146;DHT22;3104;50.348;7.620;2022-12-11T13:05:32;2.20;99.90
6146;DHT22;3104;50.348;7.620;2022-12-11T13:08:01;2.00;99.90
6146;DHT22;3104;50.348;7.620;2022-12-11T13:10:31;2.00;99.90
6146;DHT22;3104;50.348;7.620;2022-12-11T13:12:59;2.10;99.90
6146;DHT22;3104;50.348;7.620;2022-12-11T13:15:35;2.10;99.90
6146;DHT22;3104;50.348;7.620;2022-12-11T13:18:03;2.40;99.90
6146;DHT22;3104;50.348;7.620;2022-12-11T13:20:32;2.30;99.90
6146;DHT22;3104;50.348;7.620;2022-12-11T13:25:52;2.70;99.90
6146;DHT22;3104;50.348;7.620;2022-12-11T13:28:46;2.80;99.90
6146;DHT22;3104;50.348;7.620;2022-12-11T13:33:49;2.30;99.90
6146;DHT22;3104;50.348;7.620;2022-12-11T13:36:30;2.10;99.90
6146;DHT22;3104;50.348;7.620;2022-12-11T13:39:01;2.20;99.90
6146;DHT22;3104;50.348;7.620;2022-12-11T13:41:27;2.50;99.90
6146;DHT22;3104;50.348;7.620;2022-12-11T13:43:53;2.50;99.90
6146;DHT22;3104;50.348;7.620;2022-12-11T13:46:29;2.50;99.90
6146;DHT22;3104;50.348;7.620;2022-12-11T13:49:00;2.50;99.90
6146;DHT22;3104;50.348;7.620;2022-12-11T13:51:29;2.40;99.90
6146;DHT22;3104;50.348;7.620;2022-12-11T13:54:22;2.30;99.90
6146;DHT22;3104;50.348;7.620;2022-12-11T13:57:11;2.30;99.90
6146;DHT22;3104;50.348;7.620;2022-12-11T13:59:42;2.20;99.90
6146;DHT22;3104;50.348;7.620;2022-12-11T14:02:24;2.20;99.90
6146;DHT22;3104;50.348;7.620;2022-12-11T14:04:56;2.10;99.90
6146;DHT22;3104;50.348;7.620;2022-12-11T14:07:46;2.10;99.90
6146;DHT22;3104;50.348;7.620;2022-12-11T14:12:55;2.20;99.90
6146;DHT22;3104;50.348;7.620;2022-12-11T14:15:22;2.10;99.90
6146;DHT22;3104;50.348;7.620;2022-12-11T14:17:48;2.20;99.90
6146;DHT22;3104;50.348;7.620;2022-12-11T14:20:20;2.10;99.90
6146;DHT22;3104;50.348;7.620;2022-12-11T14:22:47;2.10;99.90
6146;DHT22;3104;50.348;7.620;2022-12-11T14:25:25;2.10;99.90
6146;DHT22;3104;50.348;7.620;2022-12-11T14:27:54;2.10;99.90
6146;DHT22;3104;50.348;7.620;2022-12-11T14:30:23;2.10;99.90
6146;DHT22;3104;50.348;7.620;2022-12-11T14:32:51;2.10;99.90
6146;DHT22;3104;50.348;7.620;2022-12-11T14:35:31;2.00;99.90
6146;DHT22;3104;50.348;7.620;2022-12-11T14:38:02;2.00;99.90
6146;DHT22;3104;50.348;7.620;2022-12-11T14:40:38;1.90;99.90
6146;DHT22;3104;50.348;7.620;2022-12-11T14:43:17;1.90;99.90
6146;DHT22;3104;50.348;7.620;2022-12-11T14:45:47;1.90;99.90
6146;DHT22;3104;50.348;7.620;2022-12-11T14:48:20;2.00;99.90
6146;DHT22;3104;50.348;7.620;2022-12-11T14:50:50;2.30;99.90
6146;DHT22;3104;50.348;7.620;2022-12-11T14:53:21;2.20;99.90
6146;DHT22;3104;50.348;7.620;2022-12-11T14:55:48;2.10;99.90
6146;DHT22;3104;50.348;7.620;2022-12-11T14:58:18;2.10;99.90
6146;DHT22;3104;50.348;7.620;2022-12-11T15:01:05;2.00;99.90
6146;DHT22;3104;50.348;7.620;2022-12-11T15:03:35;2.20;99.90
6146;DHT22;3104;50.348;7.620;2022-12-11T15:06:19;2.10;99.90
6146;DHT22;3104;50.348;7.620;2022-12-11T15:08:45;2.10;99.90
6146;DHT22;3104;50.348;7.620;2022-12-11T15:11:14;2.10;99.90
6146;DHT22;3104;50.348;7.620;2022-12-11T15:13:58;2.20;99.90
6146;DHT22;3104;50.348;7.620;2022-12-11T15:16:27;2.00;99.90
6146;DHT22;3104;50.348;7.620;2022-12-11T15:18:53;1.90;99.90
6146;DHT22;3104;50.348;7.620;2022-12-11T15:21:31;2.00;99.90
6146;DHT22;3104;50.348;7.620;2022-12-11T15:24:00;2.10;99.90
6146;DHT22;3104;50.348;7.620;2022-12-11T15:26:38;2.00;99.90
6146;DHT22;3104;50.348;7.620;2022-12-11T15:29:30;2.80;99.90
6146;DHT22;3104;50.348;7.620;2022-12-11T15:34:32;3.80;99.90
6146;DHT22;3104;50.348;7.620;2022-12-11T15:36:58;3.90;99.90
6146;DHT22;3104;50.348;7.620;2022-12-11T15:39:23;3.40;99.90
6146;DHT22;3104;50.348;7.620;2022-12-11T15:41:49;3.00;99.90
6146;DHT22;3104;50.348;7.620;2022-12-11T15:44:18;2.60;99.90
6146;DHT22;3104;50.348;7.620;2022-12-11T15:46:45;2.40;99.90
6146;DHT22;3104;50.348;7.620;2022-12-11T15:49:11;2.40;99.90
6146;DHT22;3104;50.348;7.620;2022-12-11T15:51:38;2.70;99.90
6146;DHT22;3104;50.348;7.620;2022-12-11T15:54:03;2.90;99.90
6146;DHT22;3104;50.348;7.620;2022-12-11T15:56:29;2.70;99.90
6146;DHT22;3104;50.348;7.620;2022-12-11T15:59:00;2.80;99.90
6146;DHT22;3104;50.348;7.620;2022-12-11T16:01:27;2.70;99.90
6146;DHT22;3104;50.348;7.620;2022-12-11T16:03:52;2.30;99.90
6146;DHT22;3104;50.348;7.620;2022-12-11T16:06:18;2.20;99.90
6146;DHT22;3104;50.348;7.620;2022-12-11T16:08:43;1.90;99.90
6146;DHT22;3104;50.348;7.620;2022-12-11T16:11:12;2.00;99.90
6146;DHT22;3104;50.348;7.620;2022-12-11T16:13:38;2.30;99.90
6146;DHT22;3104;50.348;7.620;2022-12-11T16:16:04;2.10;99.90
6146;DHT22;3104;50.348;7.620;2022-12-11T16:18:30;2.10;99.90
6146;DHT22;3104;50.348;7.620;2022-12-11T16:20:56;2.10;99.90
6146;DHT22;3104;50.348;7.620;2022-12-11T16:23:21;2.20;99.90
6146;DHT22;3104;50.348;7.620;2022-12-11T16:25:47;2.00;99.90
6146;DHT22;3104;50.348;7.620;2022-12-11T16:28:15;1.90;99.90
6146;DHT22;3104;50.348;7.620;2022-12-11T16:30:43;2.10;99.90
6146;DHT22;3104;50.348;7.620;2022-12-11T16:33:09;2.50;99.90
6146;DHT22;3104;50.348;7.620;2022-12-11T16:35:35;2.80;99.90
6146;DHT22;3104;50.348;7.620;2022-12-11T16:38:00;2.90;99.90
6146;DHT22;3104;50.348;7.620;2022-12-11T16:40:26;3.10;99.90
6146;DHT22;3104;50.348;7.620;2022-12-11T16:42:51;3.00;99.90
6146;DHT22;3104;50.348;7.620;2022-12-11T16:45:19;3.10;99.90
6146;DHT22;3104;50.348;7.620;2022-12-11T16:47:45;2.80;99.90
6146;DHT22;3104;50.348;7.620;2022-12-11T16:50:12;2.60;99.90
6146;DHT22;3104;50.348;7.620;2022-12-11T16:52:39;2.50;99.90
6146;DHT22;3104;50.348;7.620;2022-12-11T16:55:05;3.00;99.90
6146;DHT22;3104;50.348;7.620;2022-12-11T16:57:31;3.10;99.90
6146;DHT22;3104;50.348;7.620;2022-12-11T16:59:57;3.20;99.90
6146;DHT22;3104;50.348;7.620;2022-12-11T17:02:22;2.90;99.90
6146;DHT22;3104;50.348;7.620;2022-12-11T17:04:48;3.10;99.90
6146;DHT22;3104;50.348;7.620;2022-12-11T17:07:14;3.20;99.90
6146;DHT22;3104;50.348;7.620;2022-12-11T17:09:40;3.30;99.90
6146;DHT22;3104;50.348;7.620;2022-12-11T17:12:07;3.20;99.90
6146;DHT22;3104;50.348;7.620;2022-12-11T17:14:33;3.70;99.90
6146;DHT22;3104;50.348;7.620;2022-12-11T17:16:59;3.60;99.90
6146;DHT22;3104;50.348;7.620;2022-12-11T17:19:24;3.60;99.90
6146;DHT22;3104;50.348;7.620;2022-12-11T17:21:50;3.20;99.90
6146;DHT22;3104;50.348;7.620;2022-12-11T17:24:18;3.20;99.90
6146;DHT22;3104;50.348;7.620;2022-12-11T17:26:44;3.20;99.90
6146;DHT22;3104;50.348;7.620;2022-12-11T17:29:11;2.80;99.90
6146;DHT22;3104;50.348;7.620;2022-12-11T17:31:37;3.00;99.90
6146;DHT22;3104;50.348;7.620;2022-12-11T17:34:03;3.30;99.90
6146;DHT22;3104;50.348;7.620;2022-12-11T17:36:29;3.20;99.90
6146;DHT22;3104;50.348;7.620;2022-12-11T17:38:55;3.30;99.90
6146;DHT22;3104;50.348;7.620;2022-12-11T17:41:22;3.00;99.90
6146;DHT22;3104;50.348;7.620;2022-12-11T17:43:49;2.90;99.90